sensor_id;sensor_type;location;lat;lon;timestamp;temperature;humidity
41756;DHT22;27435;48.480;9.258;2022-07-17T00:02:08;14.70;82.30
41756;DHT22;27435;48.480;9.258;2022-07-17T00:04:44;14.60;81.70
41756;DHT22;27435;48.480;9.258;2022-07-17T00:07:17;14.50;82.00
41756;DHT22;27435;48.480;9.258;2022-07-17T00:09:48;14.30;82.40
41756;DHT22;27435;48.480;9.258;2022-07-17T00:12:43;14.20;82.80
41756;DHT22;27435;48.480;9.258;2022-07-17T00:15:12;14.30;82.70
41756;DHT22;27435;48.480;9.258;2022-07-17T00:17:38;14.30;82.70
41756;DHT22;27435;48.480;9.258;2022-07-17T00:20:12;14.30;82.70
41756;DHT22;27435;48.480;9.258;2022-07-17T00:23:03;14.30;82.80
41756;DHT22;27435;48.480;9.258;2022-07-17T00:25:34;14.20;82.60
41756;DHT22;27435;48.480;9.258;2022-07-17T00:28:05;14.20;83.20
41756;DHT22;27435;48.480;9.258;2022-07-17T00:30:39;14.40;82.30
41756;DHT22;27435;48.480;9.258;2022-07-17T00:33:08;14.40;82.10
41756;DHT22;27435;48.480;9.258;2022-07-17T00:35:48;14.20;82.60
41756;DHT22;27435;48.480;9.258;2022-07-17T00:38:42;14.00;83.30
41756;DHT22;27435;48.480;9.258;2022-07-17T00:41:17;14.00;83.50
41756;DHT22;27435;48.480;9.258;2022-07-17T00:43:50;14.00;83.20
41756;DHT22;27435;48.480;9.258;2022-07-17T00:46:23;14.10;82.90
41756;DHT22;27435;48.480;9.258;2022-07-17T00:48:52;14.00;83.50
41756;DHT22;27435;48.480;9.258;2022-07-17T00:51:22;14.00;83.10
41756;DHT22;27435;48.480;9.258;2022-07-17T00:54:13;14.00;83.70
41756;DHT22;27435;48.480;9.258;2022-07-17T00:56:48;14.00;83.50
41756;DHT22;27435;48.480;9.258;2022-07-17T00:59:43;14.00;83.60
41756;DHT22;27435;48.480;9.258;2022-07-17T01:02:13;14.00;84.30
41756;DHT22;27435;48.480;9.258;2022-07-17T01:04:39;14.00;84.80
41756;DHT22;27435;48.480;9.258;2022-07-17T01:07:06;14.00;84.40
41756;DHT22;27435;48.480;9.258;2022-07-17T01:09:32;14.00;84.20
41756;DHT22;27435;48.480;9.258;2022-07-17T01:11:58;14.00;84.40
41756;DHT22;27435;48.480;9.258;2022-07-17T01:14:25;14.00;84.30
41756;DHT22;27435;48.480;9.258;2022-07-17T01:16:53;13.90;84.70
41756;DHT22;27435;48.480;9.258;2022-07-17T01:19:20;13.70;84.80
41756;DHT22;27435;48.480;9.258;2022-07-17T01:21:48;13.60;85.40
41756;DHT22;27435;48.480;9.258;2022-07-17T01:24:15;13.50;85.50
41756;DHT22;27435;48.480;9.258;2022-07-17T01:26:42;13.60;86.20
41756;DHT22;27435;48.480;9.258;2022-07-17T01:29:09;13.70;85.80
41756;DHT22;27435;48.480;9.258;2022-07-17T01:31:36;13.60;86.00
41756;DHT22;27435;48.480;9.258;2022-07-17T01:34:03;13.70;86.10
41756;DHT22;27435;48.480;9.258;2022-07-17T01:36:30;13.70;86.20
41756;DHT22;27435;48.480;9.258;2022-07-17T01:38:56;13.70;86.00
41756;DHT22;27435;48.480;9.258;2022-07-17T01:41:22;13.60;86.40
41756;DHT22;27435;48.480;9.258;2022-07-17T01:43:48;13.60;86.70
41756;DHT22;27435;48.480;9.258;2022-07-17T01:46:14;13.50;86.10
41756;DHT22;27435;48.480;9.258;2022-07-17T01:48:40;13.50;86.00
41756;DHT22;27435;48.480;9.258;2022-07-17T01:51:05;13.60;86.00
41756;DHT22;27435;48.480;9.258;2022-07-17T01:53:31;13.50;85.30
41756;DHT22;27435;48.480;9.258;2022-07-17T01:55:57;13.50;85.50
41756;DHT22;27435;48.480;9.258;2022-07-17T01:58:22;13.40;85.70
41756;DHT22;27435;48.480;9.258;2022-07-17T02:00:48;13.40;85.90
41756;DHT22;27435;48.480;9.258;2022-07-17T02:03:14;13.40;86.10
41756;DHT22;27435;48.480;9.258;2022-07-17T02:05:39;13.40;86.00
41756;DHT22;27435;48.480;9.258;2022-07-17T02:08:05;13.30;86.00
41756;DHT22;27435;48.480;9.258;2022-07-17T02:10:31;13.20;86.90
41756;DHT22;27435;48.480;9.258;2022-07-17T02:12:56;13.20;87.20
41756;DHT22;27435;48.480;9.258;2022-07-17T02:15:24;13.10;87.80
41756;DHT22;27435;48.480;9.258;2022-07-17T02:17:49;13.20;87.80
41756;DHT22;27435;48.480;9.258;2022-07-17T02:20:15;13.30;87.80
41756;DHT22;27435;48.480;9.258;2022-07-17T02:22:42;13.30;88.00
41756;DHT22;27435;48.480;9.258;2022-07-17T02:25:09;13.20;88.20
41756;DHT22;27435;48.480;9.258;2022-07-17T02:27:35;13.10;88.50
41756;DHT22;27435;48.480;9.258;2022-07-17T02:30:13;13.00;88.40
41756;DHT22;27435;48.480;9.258;2022-07-17T02:32:39;13.00;88.40
41756;DHT22;27435;48.480;9.258;2022-07-17T02:35:07;13.00;88.00
41756;DHT22;27435;48.480;9.258;2022-07-17T02:37:33;13.00;88.20
41756;DHT22;27435;48.480;9.258;2022-07-17T02:39:59;13.10;87.90
41756;DHT22;27435;48.480;9.258;2022-07-17T02:42:27;13.00;88.30
41756;DHT22;27435;48.480;9.258;2022-07-17T02:44:53;13.00;89.70
41756;DHT22;27435;48.480;9.258;2022-07-17T02:47:25;13.00;89.30
41756;DHT22;27435;48.480;9.258;2022-07-17T02:49:51;13.00;89.40
41756;DHT22;27435;48.480;9.258;2022-07-17T02:52:17;13.00;89.30
41756;DHT22;27435;48.480;9.258;2022-07-17T02:54:43;13.10;89.40
41756;DHT22;27435;48.480;9.258;2022-07-17T02:57:09;13.10;89.80
41756;DHT22;27435;48.480;9.258;2022-07-17T02:59:35;13.00;90.00
41756;DHT22;27435;48.480;9.258;2022-07-17T03:02:00;12.90;90.60
41756;DHT22;27435;48.480;9.258;2022-07-17T03:04:26;12.80;90.80
41756;DHT22;27435;48.480;9.258;2022-07-17T03:06:51;12.70;91.50
41756;DHT22;27435;48.480;9.258;2022-07-17T03:09:17;12.60;91.40
41756;DHT22;27435;48.480;9.258;2022-07-17T03:11:43;12.70;90.70
41756;DHT22;27435;48.480;9.258;2022-07-17T03:14:09;12.70;90.70
41756;DHT22;27435;48.480;9.258;2022-07-17T03:16:34;12.60;91.00
41756;DHT22;27435;48.480;9.258;2022-07-17T03:19:00;12.70;90.80
41756;DHT22;27435;48.480;9.258;2022-07-17T03:21:26;12.70;91.10
41756;DHT22;27435;48.480;9.258;2022-07-17T03:23:52;12.60;91.20
41756;DHT22;27435;48.480;9.258;2022-07-17T03:26:17;12.60;91.10
41756;DHT22;27435;48.480;9.258;2022-07-17T03:28:43;12.50;91.40
41756;DHT22;27435;48.480;9.258;2022-07-17T03:31:08;12.60;90.90
41756;DHT22;27435;48.480;9.258;2022-07-17T03:33:34;12.50;91.20
41756;DHT22;27435;48.480;9.258;2022-07-17T03:35:59;12.50;90.60
41756;DHT22;27435;48.480;9.258;2022-07-17T03:38:25;12.50;90.20
41756;DHT22;27435;48.480;9.258;2022-07-17T03:40:51;12.50;90.70
41756;DHT22;27435;48.480;9.258;2022-07-17T03:43:16;12.50;91.50
41756;DHT22;27435;48.480;9.258;2022-07-17T03:45:42;12.60;90.40
41756;DHT22;27435;48.480;9.258;2022-07-17T03:48:08;12.70;89.30
41756;DHT22;27435;48.480;9.258;2022-07-17T03:50:34;12.60;89.00
41756;DHT22;27435;48.480;9.258;2022-07-17T03:52:59;12.80;89.60
41756;DHT22;27435;48.480;9.258;2022-07-17T03:55:25;12.80;89.40
41756;DHT22;27435;48.480;9.258;2022-07-17T03:57:51;12.70;89.80
41756;DHT22;27435;48.480;9.258;2022-07-17T04:00:16;12.70;89.90
41756;DHT22;27435;48.480;9.258;2022-07-17T04:02:42;12.70;89.50
41756;DHT22;27435;48.480;9.258;2022-07-17T04:05:08;12.80;88.70
41756;DHT22;27435;48.480;9.258;2022-07-17T04:07:36;12.80;88.50
41756;DHT22;27435;48.480;9.258;2022-07-17T04:10:01;12.80;88.40
41756;DHT22;27435;48.480;9.258;2022-07-17T04:12:27;12.60;89.50
41756;DHT22;27435;48.480;9.258;2022-07-17T04:14:53;12.60;89.90
41756;DHT22;27435;48.480;9.258;2022-07-17T04:17:19;12.60;90.80
41756;DHT22;27435;48.480;9.258;2022-07-17T04:19:44;12.60;90.10
41756;DHT22;27435;48.480;9.258;2022-07-17T04:22:10;12.60;89.90
41756;DHT22;27435;48.480;9.258;2022-07-17T04:24:36;12.60;90.90
41756;DHT22;27435;48.480;9.258;2022-07-17T04:27:01;12.50;91.80
41756;DHT22;27435;48.480;9.258;2022-07-17T04:29:27;12.60;91.70
41756;DHT22;27435;48.480;9.258;2022-07-17T04:31:53;12.60;92.00
41756;DHT22;27435;48.480;9.258;2022-07-17T04:34:18;12.80;91.50
41756;DHT22;27435;48.480;9.258;2022-07-17T04:36:44;12.80;91.50
41756;DHT22;27435;48.480;9.258;2022-07-17T04:39:10;12.90;91.70
41756;DHT22;27435;48.480;9.258;2022-07-17T04:41:36;13.10;90.90
41756;DHT22;27435;48.480;9.258;2022-07-17T04:44:01;13.10;90.70
41756;DHT22;27435;48.480;9.258;2022-07-17T04:46:27;13.00;90.50
41756;DHT22;27435;48.480;9.258;2022-07-17T04:48:52;13.00;90.90
41756;DHT22;27435;48.480;9.258;2022-07-17T04:51:29;12.90;90.80
41756;DHT22;27435;48.480;9.258;2022-07-17T04:54:07;12.90;91.40
41756;DHT22;27435;48.480;9.258;2022-07-17T04:56:37;12.90;91.10
41756;DHT22;27435;48.480;9.258;2022-07-17T04:59:03;13.10;90.70
41756;DHT22;27435;48.480;9.258;2022-07-17T05:01:31;13.20;90.40
41756;DHT22;27435;48.480;9.258;2022-07-17T05:03:58;13.40;89.30
41756;DHT22;27435;48.480;9.258;2022-07-17T05:06:26;13.40;89.00
41756;DHT22;27435;48.480;9.258;2022-07-17T05:09:04;13.50;89.30
41756;DHT22;27435;48.480;9.258;2022-07-17T05:11:35;13.70;88.00
41756;DHT22;27435;48.480;9.258;2022-07-17T05:14:27;13.80;87.20
41756;DHT22;27435;48.480;9.258;2022-07-17T05:16:53;14.00;86.90
41756;DHT22;27435;48.480;9.258;2022-07-17T05:19:21;13.90;87.00
41756;DHT22;27435;48.480;9.258;2022-07-17T05:21:51;14.00;87.70
41756;DHT22;27435;48.480;9.258;2022-07-17T05:24:20;14.00;86.80
41756;DHT22;27435;48.480;9.258;2022-07-17T05:26:48;14.00;87.40
41756;DHT22;27435;48.480;9.258;2022-07-17T05:29:19;14.10;86.60
41756;DHT22;27435;48.480;9.258;2022-07-17T05:31:47;14.10;87.20
41756;DHT22;27435;48.480;9.258;2022-07-17T05:34:21;14.30;86.40
41756;DHT22;27435;48.480;9.258;2022-07-17T05:36:50;14.50;86.00
41756;DHT22;27435;48.480;9.258;2022-07-17T05:39:15;14.80;84.30
41756;DHT22;27435;48.480;9.258;2022-07-17T05:41:44;15.00;83.50
41756;DHT22;27435;48.480;9.258;2022-07-17T05:44:15;15.10;83.00
41756;DHT22;27435;48.480;9.258;2022-07-17T05:46:49;15.50;82.10
41756;DHT22;27435;48.480;9.258;2022-07-17T05:49:22;15.90;81.40
41756;DHT22;27435;48.480;9.258;2022-07-17T05:51:50;16.60;77.80
41756;DHT22;27435;48.480;9.258;2022-07-17T05:54:18;16.90;76.70
41756;DHT22;27435;48.480;9.258;2022-07-17T05:56:49;17.30;75.10
41756;DHT22;27435;48.480;9.258;2022-07-17T05:59:25;17.30;75.40
41756;DHT22;27435;48.480;9.258;2022-07-17T06:01:53;17.90;75.10
41756;DHT22;27435;48.480;9.258;2022-07-17T06:04:21;19.50;69.50
41756;DHT22;27435;48.480;9.258;2022-07-17T06:06:50;20.50;66.70
41756;DHT22;27435;48.480;9.258;2022-07-17T06:09:18;21.00;65.00
41756;DHT22;27435;48.480;9.258;2022-07-17T06:11:49;21.60;63.20
41756;DHT22;27435;48.480;9.258;2022-07-17T06:14:15;22.20;61.10
41756;DHT22;27435;48.480;9.258;2022-07-17T06:16:43;22.50;61.10
41756;DHT22;27435;48.480;9.258;2022-07-17T06:19:11;22.80;59.30
41756;DHT22;27435;48.480;9.258;2022-07-17T06:21:39;23.00;59.30
41756;DHT22;27435;48.480;9.258;2022-07-17T06:24:05;23.30;58.40
41756;DHT22;27435;48.480;9.258;2022-07-17T06:26:33;23.50;58.00
41756;DHT22;27435;48.480;9.258;2022-07-17T06:29:07;23.60;57.40
41756;DHT22;27435;48.480;9.258;2022-07-17T06:31:36;23.40;58.30
41756;DHT22;27435;48.480;9.258;2022-07-17T06:34:02;23.20;58.90
41756;DHT22;27435;48.480;9.258;2022-07-17T06:36:28;23.30;58.50
41756;DHT22;27435;48.480;9.258;2022-07-17T06:38:58;23.40;58.80
41756;DHT22;27435;48.480;9.258;2022-07-17T06:41:32;23.60;58.50
41756;DHT22;27435;48.480;9.258;2022-07-17T06:44:05;24.10;57.50
41756;DHT22;27435;48.480;9.258;2022-07-17T06:49:49;22.90;60.30
41756;DHT22;27435;48.480;9.258;2022-07-17T06:52:17;23.00;60.10
41756;DHT22;27435;48.480;9.258;2022-07-17T06:54:43;23.80;58.20
41756;DHT22;27435;48.480;9.258;2022-07-17T06:57:15;23.40;59.20
41756;DHT22;27435;48.480;9.258;2022-07-17T06:59:46;22.80;61.00
41756;DHT22;27435;48.480;9.258;2022-07-17T07:02:17;23.10;60.10
41756;DHT22;27435;48.480;9.258;2022-07-17T07:04:53;22.70;60.30
41756;DHT22;27435;48.480;9.258;2022-07-17T07:07:24;22.10;62.60
41756;DHT22;27435;48.480;9.258;2022-07-17T07:09:52;22.80;61.30
41756;DHT22;27435;48.480;9.258;2022-07-17T07:12:20;23.30;60.20
41756;DHT22;27435;48.480;9.258;2022-07-17T07:14:46;24.20;57.50
41756;DHT22;27435;48.480;9.258;2022-07-17T07:17:17;23.80;58.40
41756;DHT22;27435;48.480;9.258;2022-07-17T07:19:50;24.20;57.70
41756;DHT22;27435;48.480;9.258;2022-07-17T07:22:19;23.90;57.80
41756;DHT22;27435;48.480;9.258;2022-07-17T07:24:52;22.80;60.70
41756;DHT22;27435;48.480;9.258;2022-07-17T07:27:20;22.10;62.50
41756;DHT22;27435;48.480;9.258;2022-07-17T07:29:49;22.10;63.30
41756;DHT22;27435;48.480;9.258;2022-07-17T07:32:15;21.40;64.50
41756;DHT22;27435;48.480;9.258;2022-07-17T07:34:54;21.00;65.70
41756;DHT22;27435;48.480;9.258;2022-07-17T07:37:23;20.80;67.10
41756;DHT22;27435;48.480;9.258;2022-07-17T07:39:54;21.00;66.40
41756;DHT22;27435;48.480;9.258;2022-07-17T07:42:20;21.30;65.10
41756;DHT22;27435;48.480;9.258;2022-07-17T07:44:55;21.20;64.80
41756;DHT22;27435;48.480;9.258;2022-07-17T07:47:25;21.30;64.10
41756;DHT22;27435;48.480;9.258;2022-07-17T07:49:59;21.10;64.60
41756;DHT22;27435;48.480;9.258;2022-07-17T07:52:26;21.30;64.30
41756;DHT22;27435;48.480;9.258;2022-07-17T07:54:52;21.20;62.80
41756;DHT22;27435;48.480;9.258;2022-07-17T07:57:46;21.20;63.50
41756;DHT22;27435;48.480;9.258;2022-07-17T08:00:18;21.10;64.20
41756;DHT22;27435;48.480;9.258;2022-07-17T08:02:56;21.20;63.60
41756;DHT22;27435;48.480;9.258;2022-07-17T08:05:22;21.40;64.30
41756;DHT22;27435;48.480;9.258;2022-07-17T08:07:48;21.40;65.20
41756;DHT22;27435;48.480;9.258;2022-07-17T08:10:17;21.60;64.90
41756;DHT22;27435;48.480;9.258;2022-07-17T08:12:44;21.60;64.60
41756;DHT22;27435;48.480;9.258;2022-07-17T08:15:09;21.80;64.10
41756;DHT22;27435;48.480;9.258;2022-07-17T08:17:35;22.10;63.90
41756;DHT22;27435;48.480;9.258;2022-07-17T08:20:09;22.00;63.70
41756;DHT22;27435;48.480;9.258;2022-07-17T08:22:35;21.70;65.00
41756;DHT22;27435;48.480;9.258;2022-07-17T08:25:01;22.00;65.00
41756;DHT22;27435;48.480;9.258;2022-07-17T08:27:39;22.20;64.10
41756;DHT22;27435;48.480;9.258;2022-07-17T08:30:08;22.50;63.60
41756;DHT22;27435;48.480;9.258;2022-07-17T08:32:36;22.50;63.40
41756;DHT22;27435;48.480;9.258;2022-07-17T08:35:02;22.40;63.60
41756;DHT22;27435;48.480;9.258;2022-07-17T08:37:28;22.40;63.90
41756;DHT22;27435;48.480;9.258;2022-07-17T08:39:55;22.30;64.30
41756;DHT22;27435;48.480;9.258;2022-07-17T08:42:21;22.60;63.70
41756;DHT22;27435;48.480;9.258;2022-07-17T08:44:48;22.70;63.00
41756;DHT22;27435;48.480;9.258;2022-07-17T08:47:15;22.80;61.90
41756;DHT22;27435;48.480;9.258;2022-07-17T08:50:02;22.90;62.20
41756;DHT22;27435;48.480;9.258;2022-07-17T08:52:29;22.80;62.80
41756;DHT22;27435;48.480;9.258;2022-07-17T08:54:59;22.80;62.90
41756;DHT22;27435;48.480;9.258;2022-07-17T08:57:26;23.00;59.10
41756;DHT22;27435;48.480;9.258;2022-07-17T08:59:52;23.00;60.70
41756;DHT22;27435;48.480;9.258;2022-07-17T09:02:18;23.00;60.90
41756;DHT22;27435;48.480;9.258;2022-07-17T09:04:52;23.00;60.30
41756;DHT22;27435;48.480;9.258;2022-07-17T09:07:18;23.10;61.40
41756;DHT22;27435;48.480;9.258;2022-07-17T09:09:51;23.20;61.40
41756;DHT22;27435;48.480;9.258;2022-07-17T09:12:29;23.10;60.10
41756;DHT22;27435;48.480;9.258;2022-07-17T09:14:55;23.20;58.40
41756;DHT22;27435;48.480;9.258;2022-07-17T09:17:21;23.30;58.50
41756;DHT22;27435;48.480;9.258;2022-07-17T09:19:48;23.20;58.90
41756;DHT22;27435;48.480;9.258;2022-07-17T09:22:16;23.30;59.10
41756;DHT22;27435;48.480;9.258;2022-07-17T09:24:49;23.10;59.20
41756;DHT22;27435;48.480;9.258;2022-07-17T09:27:32;23.50;58.50
41756;DHT22;27435;48.480;9.258;2022-07-17T09:30:08;23.50;56.70
41756;DHT22;27435;48.480;9.258;2022-07-17T09:32:39;23.70;55.80
41756;DHT22;27435;48.480;9.258;2022-07-17T09:35:09;23.70;55.50
41756;DHT22;27435;48.480;9.258;2022-07-17T09:37:36;23.50;55.20
41756;DHT22;27435;48.480;9.258;2022-07-17T09:40:14;23.60;55.50
41756;DHT22;27435;48.480;9.258;2022-07-17T09:43:00;24.00;53.90
41756;DHT22;27435;48.480;9.258;2022-07-17T09:45:26;24.00;54.00
41756;DHT22;27435;48.480;9.258;2022-07-17T09:47:53;23.90;54.70
41756;DHT22;27435;48.480;9.258;2022-07-17T09:50:19;24.10;54.20
41756;DHT22;27435;48.480;9.258;2022-07-17T09:52:45;24.10;52.80
41756;DHT22;27435;48.480;9.258;2022-07-17T09:55:11;24.00;53.80
41756;DHT22;27435;48.480;9.258;2022-07-17T09:57:41;24.10;53.50
41756;DHT22;27435;48.480;9.258;2022-07-17T10:00:08;24.20;53.30
41756;DHT22;27435;48.480;9.258;2022-07-17T10:02:40;24.20;53.40
41756;DHT22;27435;48.480;9.258;2022-07-17T10:05:09;24.20;53.80
41756;DHT22;27435;48.480;9.258;2022-07-17T10:07:39;24.10;53.80
41756;DHT22;27435;48.480;9.258;2022-07-17T10:10:08;24.10;54.00
41756;DHT22;27435;48.480;9.258;2022-07-17T10:12:36;24.40;53.60
41756;DHT22;27435;48.480;9.258;2022-07-17T10:15:03;24.60;53.60
41756;DHT22;27435;48.480;9.258;2022-07-17T10:17:29;24.50;53.00
41756;DHT22;27435;48.480;9.258;2022-07-17T10:19:56;24.60;53.00
41756;DHT22;27435;48.480;9.258;2022-07-17T10:22:23;24.60;53.20
41756;DHT22;27435;48.480;9.258;2022-07-17T10:29:45;24.60;53.20
41756;DHT22;27435;48.480;9.258;2022-07-17T10:32:16;24.60;53.90
41756;DHT22;27435;48.480;9.258;2022-07-17T10:35:06;24.80;53.30
41756;DHT22;27435;48.480;9.258;2022-07-17T10:40:18;24.90;53.10
41756;DHT22;27435;48.480;9.258;2022-07-17T10:43:04;25.00;52.80
41756;DHT22;27435;48.480;9.258;2022-07-17T10:45:40;24.90;53.40
41756;DHT22;27435;48.480;9.258;2022-07-17T10:48:14;25.10;52.90
41756;DHT22;27435;48.480;9.258;2022-07-17T10:50:49;25.20;50.90
41756;DHT22;27435;48.480;9.258;2022-07-17T10:53:19;25.10;51.40
41756;DHT22;27435;48.480;9.258;2022-07-17T10:56:00;25.30;51.60
41756;DHT22;27435;48.480;9.258;2022-07-17T10:58:32;25.40;51.80
41756;DHT22;27435;48.480;9.258;2022-07-17T11:01:12;25.40;51.10
41756;DHT22;27435;48.480;9.258;2022-07-17T11:06:17;25.30;50.30
41756;DHT22;27435;48.480;9.258;2022-07-17T11:11:22;25.40;50.20
41756;DHT22;27435;48.480;9.258;2022-07-17T11:13:48;25.20;49.20
41756;DHT22;27435;48.480;9.258;2022-07-17T11:16:24;25.30;49.80
41756;DHT22;27435;48.480;9.258;2022-07-17T11:18:50;25.50;48.90
41756;DHT22;27435;48.480;9.258;2022-07-17T11:21:16;25.40;48.50
41756;DHT22;27435;48.480;9.258;2022-07-17T11:23:54;25.40;48.30
41756;DHT22;27435;48.480;9.258;2022-07-17T11:26:21;25.10;48.10
41756;DHT22;27435;48.480;9.258;2022-07-17T11:28:47;25.10;48.20
41756;DHT22;27435;48.480;9.258;2022-07-17T11:31:22;25.40;48.40
41756;DHT22;27435;48.480;9.258;2022-07-17T11:33:53;25.40;47.30
41756;DHT22;27435;48.480;9.258;2022-07-17T11:36:33;25.70;47.40
41756;DHT22;27435;48.480;9.258;2022-07-17T11:39:11;25.80;47.90
41756;DHT22;27435;48.480;9.258;2022-07-17T11:41:38;25.90;47.20
41756;DHT22;27435;48.480;9.258;2022-07-17T11:44:06;25.90;47.20
41756;DHT22;27435;48.480;9.258;2022-07-17T11:46:33;26.00;46.70
41756;DHT22;27435;48.480;9.258;2022-07-17T11:48:59;26.50;47.10
41756;DHT22;27435;48.480;9.258;2022-07-17T11:51:42;26.40;45.50
41756;DHT22;27435;48.480;9.258;2022-07-17T11:54:11;26.40;45.90
41756;DHT22;27435;48.480;9.258;2022-07-17T11:56:37;26.60;45.00
41756;DHT22;27435;48.480;9.258;2022-07-17T11:59:04;26.50;45.30
41756;DHT22;27435;48.480;9.258;2022-07-17T12:01:44;26.60;46.30
41756;DHT22;27435;48.480;9.258;2022-07-17T12:04:14;26.40;45.40
41756;DHT22;27435;48.480;9.258;2022-07-17T12:06:40;26.30;46.00
41756;DHT22;27435;48.480;9.258;2022-07-17T12:09:06;26.30;45.40
41756;DHT22;27435;48.480;9.258;2022-07-17T12:11:32;26.70;44.80
41756;DHT22;27435;48.480;9.258;2022-07-17T12:14:05;27.20;43.20
41756;DHT22;27435;48.480;9.258;2022-07-17T12:16:36;26.70;44.00
41756;DHT22;27435;48.480;9.258;2022-07-17T12:19:08;26.90;43.40
41756;DHT22;27435;48.480;9.258;2022-07-17T12:22:01;27.10;43.40
41756;DHT22;27435;48.480;9.258;2022-07-17T12:24:33;27.20;43.00
41756;DHT22;27435;48.480;9.258;2022-07-17T12:27:02;27.30;42.70
41756;DHT22;27435;48.480;9.258;2022-07-17T12:29:29;27.60;42.90
41756;DHT22;27435;48.480;9.258;2022-07-17T12:32:09;27.50;41.80
41756;DHT22;27435;48.480;9.258;2022-07-17T12:34:45;27.40;42.00
41756;DHT22;27435;48.480;9.258;2022-07-17T12:37:15;27.70;41.70
41756;DHT22;27435;48.480;9.258;2022-07-17T12:39:41;27.30;42.20
41756;DHT22;27435;48.480;9.258;2022-07-17T12:42:07;27.50;41.40
41756;DHT22;27435;48.480;9.258;2022-07-17T12:44:35;27.90;41.40
41756;DHT22;27435;48.480;9.258;2022-07-17T12:47:01;27.90;41.20
41756;DHT22;27435;48.480;9.258;2022-07-17T12:49:27;28.40;41.70
41756;DHT22;27435;48.480;9.258;2022-07-17T12:51:53;28.50;41.00
41756;DHT22;27435;48.480;9.258;2022-07-17T12:54:19;28.60;40.50
41756;DHT22;27435;48.480;9.258;2022-07-17T12:56:45;28.60;39.90
41756;DHT22;27435;48.480;9.258;2022-07-17T12:59:11;28.80;39.50
41756;DHT22;27435;48.480;9.258;2022-07-17T13:01:37;28.30;40.50
41756;DHT22;27435;48.480;9.258;2022-07-17T13:04:02;28.50;39.80
41756;DHT22;27435;48.480;9.258;2022-07-17T13:06:28;28.70;38.80
41756;DHT22;27435;48.480;9.258;2022-07-17T13:08:54;28.70;39.00
41756;DHT22;27435;48.480;9.258;2022-07-17T13:11:19;28.60;38.70
41756;DHT22;27435;48.480;9.258;2022-07-17T13:13:46;28.60;38.90
41756;DHT22;27435;48.480;9.258;2022-07-17T13:16:12;28.90;38.00
41756;DHT22;27435;48.480;9.258;2022-07-17T13:18:39;29.30;38.00
41756;DHT22;27435;48.480;9.258;2022-07-17T13:21:05;29.40;37.50
41756;DHT22;27435;48.480;9.258;2022-07-17T13:23:32;29.10;37.50
41756;DHT22;27435;48.480;9.258;2022-07-17T13:25:59;29.10;38.50
41756;DHT22;27435;48.480;9.258;2022-07-17T13:28:25;29.00;38.30
41756;DHT22;27435;48.480;9.258;2022-07-17T13:30:51;28.90;38.50
41756;DHT22;27435;48.480;9.258;2022-07-17T13:33:17;29.30;38.00
41756;DHT22;27435;48.480;9.258;2022-07-17T13:35:43;29.60;37.30
41756;DHT22;27435;48.480;9.258;2022-07-17T13:38:08;29.70;36.50
41756;DHT22;27435;48.480;9.258;2022-07-17T13:40:35;29.70;36.80
41756;DHT22;27435;48.480;9.258;2022-07-17T13:43:01;29.50;36.60
41756;DHT22;27435;48.480;9.258;2022-07-17T13:45:27;29.50;36.80
41756;DHT22;27435;48.480;9.258;2022-07-17T13:47:53;29.50;36.20
41756;DHT22;27435;48.480;9.258;2022-07-17T13:50:20;29.90;35.60
41756;DHT22;27435;48.480;9.258;2022-07-17T13:52:45;29.90;35.20
41756;DHT22;27435;48.480;9.258;2022-07-17T13:55:12;29.90;34.70
41756;DHT22;27435;48.480;9.258;2022-07-17T13:57:37;29.90;35.20
41756;DHT22;27435;48.480;9.258;2022-07-17T14:00:05;30.00;35.60
41756;DHT22;27435;48.480;9.258;2022-07-17T14:02:31;30.00;35.00
41756;DHT22;27435;48.480;9.258;2022-07-17T14:04:56;30.10;34.50
41756;DHT22;27435;48.480;9.258;2022-07-17T14:07:22;30.00;34.90
41756;DHT22;27435;48.480;9.258;2022-07-17T14:09:48;30.00;35.00
41756;DHT22;27435;48.480;9.258;2022-07-17T14:12:13;30.40;34.60
41756;DHT22;27435;48.480;9.258;2022-07-17T14:14:39;30.10;34.90
41756;DHT22;27435;48.480;9.258;2022-07-17T14:17:04;30.80;34.20
41756;DHT22;27435;48.480;9.258;2022-07-17T14:19:30;30.90;33.90
41756;DHT22;27435;48.480;9.258;2022-07-17T14:21:56;31.40;33.40
41756;DHT22;27435;48.480;9.258;2022-07-17T14:24:22;31.10;33.50
41756;DHT22;27435;48.480;9.258;2022-07-17T14:26:47;31.30;33.20
41756;DHT22;27435;48.480;9.258;2022-07-17T14:29:13;31.10;33.30
41756;DHT22;27435;48.480;9.258;2022-07-17T14:31:40;30.90;33.20
41756;DHT22;27435;48.480;9.258;2022-07-17T14:34:06;31.30;32.70
41756;DHT22;27435;48.480;9.258;2022-07-17T14:36:31;31.70;32.20
41756;DHT22;27435;48.480;9.258;2022-07-17T14:38:57;31.60;31.40
41756;DHT22;27435;48.480;9.258;2022-07-17T14:41:23;31.40;31.70
41756;DHT22;27435;48.480;9.258;2022-07-17T14:43:49;31.60;31.70
41756;DHT22;27435;48.480;9.258;2022-07-17T14:46:14;32.00;30.80
41756;DHT22;27435;48.480;9.258;2022-07-17T14:48:40;31.70;30.20
41756;DHT22;27435;48.480;9.258;2022-07-17T14:51:06;31.20;30.80
41756;DHT22;27435;48.480;9.258;2022-07-17T14:53:32;31.00;31.20
41756;DHT22;27435;48.480;9.258;2022-07-17T14:55:57;31.40;30.10
41756;DHT22;27435;48.480;9.258;2022-07-17T14:58:23;32.20;30.10
41756;DHT22;27435;48.480;9.258;2022-07-17T15:00:49;31.40;30.80
41756;DHT22;27435;48.480;9.258;2022-07-17T15:03:14;32.00;30.20
41756;DHT22;27435;48.480;9.258;2022-07-17T15:05:40;32.20;29.80
41756;DHT22;27435;48.480;9.258;2022-07-17T15:08:06;32.40;29.70
41756;DHT22;27435;48.480;9.258;2022-07-17T15:10:32;31.90;29.60
41756;DHT22;27435;48.480;9.258;2022-07-17T15:12:59;31.60;30.70
41756;DHT22;27435;48.480;9.258;2022-07-17T15:15:25;31.60;30.40
41756;DHT22;27435;48.480;9.258;2022-07-17T15:17:51;31.80;30.20
41756;DHT22;27435;48.480;9.258;2022-07-17T15:20:17;32.20;30.30
41756;DHT22;27435;48.480;9.258;2022-07-17T15:22:42;32.20;31.00
41756;DHT22;27435;48.480;9.258;2022-07-17T15:25:08;32.40;30.00
41756;DHT22;27435;48.480;9.258;2022-07-17T15:27:34;32.10;31.10
41756;DHT22;27435;48.480;9.258;2022-07-17T15:30:00;31.70;31.30
41756;DHT22;27435;48.480;9.258;2022-07-17T15:32:25;32.10;30.80
41756;DHT22;27435;48.480;9.258;2022-07-17T15:34:51;32.10;30.50
41756;DHT22;27435;48.480;9.258;2022-07-17T15:37:17;31.80;30.90
41756;DHT22;27435;48.480;9.258;2022-07-17T15:39:44;31.80;30.30
41756;DHT22;27435;48.480;9.258;2022-07-17T15:42:10;32.50;29.60
41756;DHT22;27435;48.480;9.258;2022-07-17T15:44:35;32.20;29.80
41756;DHT22;27435;48.480;9.258;2022-07-17T15:47:01;32.00;31.20
41756;DHT22;27435;48.480;9.258;2022-07-17T15:49:27;32.80;29.90
41756;DHT22;27435;48.480;9.258;2022-07-17T15:51:52;33.00;29.60
41756;DHT22;27435;48.480;9.258;2022-07-17T15:54:18;32.60;29.60
41756;DHT22;27435;48.480;9.258;2022-07-17T15:56:44;32.50;29.80